createdAt,value
2023-04-11T00:00:10.438Z,31.17
2023-04-11T00:03:02.565Z,30.67
2023-04-11T00:05:31.807Z,31.43
2023-04-11T00:08:00.880Z,37.80
2023-04-11T00:10:29.606Z,33.05
2023-04-11T00:12:58.988Z,34.93
2023-04-11T00:15:28.364Z,32.80
2023-04-11T00:17:58.091Z,31.30
2023-04-11T00:20:26.909Z,34.30
2023-04-11T00:22:57.828Z,38.83
2023-04-11T00:25:27.060Z,37.47
2023-04-11T00:27:56.002Z,38.60
2023-04-11T00:30:25.149Z,35.13
2023-04-11T00:32:54.168Z,41.60
2023-04-11T00:35:23.342Z,36.40
2023-04-11T00:37:55.599Z,37.40
2023-04-11T00:40:24.900Z,34.70
2023-04-11T00:42:55.922Z,40.77
2023-04-11T00:45:25.811Z,35.13
2023-04-11T00:47:54.920Z,38.07
2023-04-11T00:50:24.510Z,38.43
2023-04-11T00:52:55.269Z,36.33
2023-04-11T00:55:26.108Z,40.17
2023-04-11T00:57:56.161Z,36.90
2023-04-11T01:00:26.839Z,34.27
2023-04-11T01:02:56.036Z,35.53
2023-04-11T01:05:25.558Z,37.53
2023-04-11T01:07:55.261Z,40.73
2023-04-11T01:10:28.385Z,33.63
2023-04-11T01:12:59.186Z,33.77
2023-04-11T01:15:28.583Z,33.30
2023-04-11T01:18:01.496Z,31.57
2023-04-11T01:20:32.833Z,42.47
2023-04-11T01:23:02.742Z,36.90
2023-04-11T01:25:31.639Z,37.33
2023-04-11T01:28:00.515Z,35.33
2023-04-11T01:30:29.434Z,34.47
2023-04-11T01:32:58.404Z,38.90
2023-04-11T01:35:27.407Z,35.27
2023-04-11T01:37:56.419Z,38.37
2023-04-11T01:40:25.957Z,33.10
2023-04-11T01:42:55.659Z,32.13
2023-04-11T01:45:25.268Z,35.57
2023-04-11T01:47:54.293Z,32.23
2023-04-11T01:50:23.668Z,33.27
2023-04-11T01:52:52.837Z,33.20
2023-04-11T01:55:21.948Z,32.27
2023-04-11T01:57:50.738Z,34.70
2023-04-11T02:00:21.219Z,33.07
2023-04-11T02:02:50.069Z,32.70
2023-04-11T02:05:20.016Z,33.90
2023-04-11T02:07:49.426Z,30.23
2023-04-11T02:10:20.078Z,30.73
2023-04-11T02:12:49.005Z,32.60
2023-04-11T02:15:18.314Z,30.83
2023-04-11T02:17:47.651Z,28.43
2023-04-11T02:20:16.715Z,28.97
2023-04-11T02:22:45.656Z,29.33
2023-04-11T02:25:17.933Z,25.80
2023-04-11T02:27:46.866Z,33.57
2023-04-11T02:30:16.437Z,30.33
2023-04-11T02:32:48.864Z,31.33
2023-04-11T02:35:18.018Z,29.60
2023-04-11T02:37:46.920Z,27.43
2023-04-11T02:40:15.764Z,27.00
2023-04-11T02:42:44.764Z,30.57
2023-04-11T02:45:13.827Z,30.50
2023-04-11T02:47:43.073Z,27.17
2023-04-11T02:50:12.610Z,27.57
2023-04-11T02:52:47.842Z,30.92
2023-04-11T02:55:18.124Z,25.87
2023-04-11T02:57:47.147Z,32.97
2023-04-11T03:00:18.691Z,28.60
2023-04-11T03:05:23.438Z,32.37
2023-04-11T03:07:54.315Z,36.97
2023-04-11T03:10:23.978Z,31.50
2023-04-11T03:12:52.849Z,32.07
2023-04-11T03:15:21.952Z,33.03
2023-04-11T03:17:50.841Z,31.97
2023-04-11T03:20:20.356Z,33.37
2023-04-11T03:22:52.028Z,34.20
2023-04-11T03:25:22.174Z,32.07
2023-04-11T03:27:51.694Z,33.30
2023-04-11T03:30:20.989Z,30.30
2023-04-11T03:32:50.099Z,32.63
2023-04-11T03:35:19.999Z,30.63
2023-04-11T03:37:50.039Z,34.33
2023-04-11T03:40:19.041Z,31.33
2023-04-11T03:42:52.746Z,31.68
2023-04-11T03:45:25.251Z,30.03
2023-04-11T03:47:55.416Z,29.97
2023-04-11T03:50:27.362Z,28.83
2023-04-11T03:53:02.592Z,29.53
2023-04-11T03:55:32.100Z,28.43
2023-04-11T03:58:02.021Z,30.90
2023-04-11T04:00:31.664Z,29.50
2023-04-11T04:03:07.371Z,30.95
2023-04-11T04:05:37.919Z,30.23
2023-04-11T04:08:09.119Z,31.87
2023-04-11T04:10:47.117Z,30.33
2023-04-11T04:13:16.279Z,28.47
2023-04-11T04:16:00.247Z,28.97
2023-04-11T04:18:31.062Z,34.00
2023-04-11T04:20:59.944Z,31.60
2023-04-11T04:23:29.547Z,36.97
2023-04-11T04:26:24.416Z,30.97
2023-04-11T04:29:04.081Z,29.70
2023-04-11T04:31:41.100Z,33.30
2023-04-11T04:34:10.420Z,32.13
2023-04-11T04:36:47.242Z,31.23
2023-04-11T04:39:19.171Z,32.80
2023-04-11T04:41:57.741Z,30.10
2023-04-11T04:44:29.443Z,29.03
2023-04-11T04:47:02.322Z,32.93
2023-04-11T04:49:31.546Z,33.03
2023-04-11T04:52:01.443Z,33.80
2023-04-11T04:54:30.755Z,37.13
2023-04-11T04:57:01.012Z,42.17
2023-04-11T04:59:30.058Z,39.23
2023-04-11T05:02:06.040Z,35.20
2023-04-11T05:04:36.474Z,38.33
2023-04-11T05:07:06.187Z,44.53
2023-04-11T05:09:35.983Z,61.23
2023-04-11T05:12:16.126Z,112.03
2023-04-11T05:14:45.378Z,77.33
2023-04-11T05:17:14.258Z,63.57
2023-04-11T05:19:43.152Z,66.30
2023-04-11T05:22:13.014Z,42.87
2023-04-11T05:24:45.874Z,48.50
2023-04-11T05:27:15.003Z,41.50
2023-04-11T05:29:44.383Z,27.37
2023-04-11T05:32:14.051Z,26.50
2023-04-11T05:34:53.058Z,28.93
2023-04-11T05:37:26.282Z,22.77
2023-04-11T05:39:55.878Z,23.17
2023-04-11T05:42:24.787Z,21.93
2023-04-11T05:44:53.674Z,26.93
2023-04-11T05:47:24.431Z,20.70
2023-04-11T05:49:53.150Z,24.43
2023-04-11T05:52:21.995Z,22.20
2023-04-11T05:54:50.669Z,25.83
2023-04-11T05:57:19.391Z,22.57
2023-04-11T05:59:49.439Z,21.93
2023-04-11T06:02:18.520Z,18.40
2023-04-11T06:04:47.597Z,21.00
2023-04-11T06:07:16.600Z,20.73
2023-04-11T06:09:45.502Z,21.47
2023-04-11T06:12:14.190Z,19.13
2023-04-11T06:14:42.935Z,18.97
2023-04-11T06:17:12.075Z,19.33
2023-04-11T06:19:41.493Z,22.27
2023-04-11T06:22:10.245Z,21.43
2023-04-11T06:24:42.153Z,20.77
2023-04-11T06:27:11.374Z,18.17
2023-04-11T06:29:43.064Z,18.33
2023-04-11T06:32:12.838Z,18.87
2023-04-11T06:34:42.122Z,15.13
2023-04-11T06:37:11.518Z,16.63
2023-04-11T06:39:41.317Z,12.93
2023-04-11T06:42:10.539Z,13.20
2023-04-11T06:44:44.612Z,13.03
2023-04-11T06:47:14.758Z,16.77
2023-04-11T06:49:44.071Z,12.13
2023-04-11T06:52:13.914Z,12.63
2023-04-11T06:54:42.880Z,11.23
2023-04-11T06:57:13.143Z,13.93
2023-04-11T06:59:42.481Z,10.83
2023-04-11T07:02:12.388Z,9.80
2023-04-11T07:04:43.601Z,10.73
2023-04-11T07:07:12.695Z,12.17
2023-04-11T07:09:42.973Z,23.25
2023-04-11T07:12:11.904Z,15.03
2023-04-11T07:14:41.282Z,10.57
2023-04-11T07:17:10.095Z,10.67
2023-04-11T07:19:38.856Z,11.50
2023-04-11T07:22:08.452Z,13.57
2023-04-11T07:24:37.437Z,13.50
2023-04-11T07:27:06.238Z,16.50
2023-04-11T07:29:35.332Z,9.77
2023-04-11T07:32:04.551Z,11.43
2023-04-11T07:34:33.929Z,9.47
2023-04-11T07:37:05.912Z,12.57
2023-04-11T07:39:35.768Z,10.40
2023-04-11T07:42:05.382Z,9.70
2023-04-11T07:44:34.457Z,9.37
2023-04-11T07:47:03.617Z,10.20
2023-04-11T07:49:33.210Z,10.13
2023-04-11T07:52:02.325Z,9.63
2023-04-11T07:54:33.665Z,9.23
2023-04-11T07:57:03.166Z,11.13
2023-04-11T07:59:33.348Z,8.10
2023-04-11T08:02:04.502Z,8.80
2023-04-11T08:04:34.609Z,6.23
2023-04-11T08:07:04.451Z,6.43
2023-04-11T08:09:34.195Z,7.10
2023-04-11T08:12:03.925Z,7.37
2023-04-11T08:14:34.260Z,6.03
2023-04-11T08:17:05.421Z,9.47
2023-04-11T08:19:37.426Z,8.00
2023-04-11T08:22:06.485Z,8.27
2023-04-11T08:24:35.624Z,8.57
2023-04-11T08:27:05.024Z,7.00
2023-04-11T08:29:34.242Z,8.90
2023-04-11T08:32:04.543Z,6.80
2023-04-11T08:34:34.686Z,10.17
2023-04-11T08:37:04.275Z,8.50
2023-04-11T08:39:33.257Z,8.37
2023-04-11T08:42:02.199Z,7.97
2023-04-11T08:44:31.055Z,8.80
2023-04-11T08:47:00.053Z,8.30
2023-04-11T08:49:29.401Z,7.03
2023-04-11T08:51:58.857Z,6.53
2023-04-11T08:54:27.906Z,4.80
2023-04-11T08:56:57.251Z,6.10
2023-04-11T08:59:29.044Z,6.87
2023-04-11T09:02:08.800Z,6.27
2023-04-11T09:04:42.109Z,5.33
2023-04-11T09:07:11.690Z,4.95
2023-04-11T09:09:41.358Z,5.90
2023-04-11T09:12:14.485Z,6.10
2023-04-11T09:14:43.902Z,6.47
2023-04-11T09:17:13.893Z,4.00
2023-04-11T09:19:43.263Z,9.87
2023-04-11T09:22:15.639Z,7.45
2023-04-11T09:24:46.305Z,4.57
2023-04-11T09:27:19.078Z,5.90
2023-04-11T09:29:48.630Z,6.30
2023-04-11T09:32:40.589Z,6.67
2023-04-11T09:35:15.603Z,5.10
2023-04-11T09:37:47.346Z,5.27
2023-04-11T09:40:19.867Z,4.57
2023-04-11T09:42:55.671Z,6.07
2023-04-11T09:45:25.921Z,4.27
2023-04-11T09:47:56.215Z,6.87
2023-04-11T09:50:27.585Z,4.60
2023-04-11T09:52:59.099Z,7.80
2023-04-11T09:55:28.318Z,5.23
2023-04-11T09:57:57.228Z,6.03
2023-04-11T10:00:29.488Z,6.67
2023-04-11T10:02:59.327Z,6.23
2023-04-11T10:05:29.875Z,6.77
2023-04-11T10:08:05.247Z,7.20
2023-04-11T10:10:35.622Z,4.97
2023-04-11T10:13:45.143Z,5.73
2023-04-11T10:16:24.011Z,6.87
2023-04-11T10:19:26.736Z,6.00
2023-04-11T10:21:55.618Z,5.27
2023-04-11T10:24:26.182Z,6.03
2023-04-11T10:26:57.972Z,7.40
2023-04-11T10:29:54.408Z,6.13
2023-04-11T10:32:26.348Z,5.70
2023-04-11T10:35:25.228Z,6.00
2023-04-11T10:37:54.145Z,5.57
2023-04-11T10:40:24.592Z,4.80
2023-04-11T10:42:53.522Z,7.37
2023-04-11T10:45:24.863Z,4.70
2023-04-11T10:48:11.600Z,4.67
2023-04-11T10:50:43.983Z,4.20
2023-04-11T10:53:36.586Z,5.53
2023-04-11T10:56:08.672Z,5.03
2023-04-11T10:58:40.371Z,5.13
2023-04-11T11:01:32.028Z,5.90
2023-04-11T11:04:07.977Z,5.43
2023-04-11T11:06:46.815Z,5.30
2023-04-11T11:09:23.890Z,4.67
2023-04-11T11:12:10.573Z,6.63
2023-04-11T11:14:41.945Z,3.87
2023-04-11T11:17:13.178Z,4.13
2023-04-11T11:19:45.626Z,3.73
2023-04-11T11:22:18.764Z,4.63
2023-04-11T11:24:47.759Z,5.55
2023-04-11T11:27:24.602Z,6.33
2023-04-11T11:29:53.964Z,5.83
2023-04-11T11:32:27.483Z,5.93
2023-04-11T11:34:58.350Z,5.90
2023-04-11T11:37:27.262Z,7.30
2023-04-11T11:39:58.088Z,6.10
2023-04-11T11:42:28.020Z,5.53
2023-04-11T11:45:14.947Z,7.07
2023-04-11T11:47:45.883Z,6.90
2023-04-11T11:50:26.837Z,5.40
2023-04-11T11:53:11.837Z,8.87
2023-04-11T11:55:43.181Z,6.20
2023-04-11T11:58:12.081Z,6.30
2023-04-11T12:00:48.796Z,7.37
2023-04-11T12:03:24.698Z,7.50
2023-04-11T12:05:57.934Z,5.93
2023-04-11T12:08:44.450Z,7.77
2023-04-11T12:11:25.188Z,8.00
2023-04-11T12:13:58.868Z,6.27
2023-04-11T12:16:29.965Z,7.05
2023-04-11T12:19:05.244Z,5.90
2023-04-11T12:21:38.286Z,8.53
2023-04-11T12:24:10.448Z,5.77
2023-04-11T12:26:57.512Z,6.10
2023-04-11T12:29:33.756Z,5.50
2023-04-11T12:32:04.642Z,7.43
2023-04-11T12:34:34.722Z,6.13
2023-04-11T12:37:06.782Z,5.80
2023-04-11T12:39:38.604Z,6.53
2023-04-11T12:42:12.049Z,6.23
2023-04-11T12:44:46.431Z,5.97
2023-04-11T12:47:25.920Z,11.97
2023-04-11T12:50:03.605Z,6.57
2023-04-11T12:52:34.273Z,5.53
2023-04-11T12:55:04.158Z,7.43
2023-04-11T12:57:33.144Z,8.23
2023-04-11T13:00:07.705Z,7.33
2023-04-11T13:02:42.884Z,8.00
2023-04-11T13:05:14.805Z,6.00
2023-04-11T13:07:45.633Z,6.77
2023-04-11T13:10:16.172Z,9.60
2023-04-11T13:12:46.073Z,5.77
2023-04-11T13:15:16.923Z,6.50
2023-04-11T13:17:50.577Z,7.00
2023-04-11T13:20:19.951Z,6.77
2023-04-11T13:22:48.710Z,7.40
2023-04-11T13:25:18.393Z,6.83
2023-04-11T13:27:47.387Z,8.37
2023-04-11T13:30:16.495Z,7.10
2023-04-11T13:32:45.443Z,6.70
2023-04-11T13:35:16.840Z,7.60
2023-04-11T13:37:45.576Z,7.63
2023-04-11T13:40:15.671Z,9.50
2023-04-11T13:42:44.574Z,6.57
2023-04-11T13:45:13.854Z,12.00
2023-04-11T13:47:44.550Z,8.20
2023-04-11T13:50:13.736Z,8.87
2023-04-11T13:52:43.509Z,6.40
2023-04-11T13:55:12.370Z,7.47
2023-04-11T13:57:41.989Z,5.73
2023-04-11T14:00:15.570Z,6.97
2023-04-11T14:02:44.770Z,7.65
2023-04-11T14:05:14.309Z,10.87
2023-04-11T14:07:43.475Z,7.33
2023-04-11T14:10:12.433Z,9.13
2023-04-11T14:12:42.412Z,7.17
2023-04-11T14:15:12.553Z,7.43
2023-04-11T14:17:43.355Z,8.80
2023-04-11T14:20:16.256Z,6.43
2023-04-11T14:22:46.273Z,7.73
2023-04-11T14:25:15.740Z,8.30
2023-04-11T14:27:45.741Z,6.87
2023-04-11T14:30:15.181Z,8.13
2023-04-11T14:32:44.573Z,6.83
2023-04-11T14:35:13.545Z,7.07
2023-04-11T14:37:44.463Z,6.87
2023-04-11T14:40:14.153Z,6.83
2023-04-11T14:42:43.625Z,8.27
2023-04-11T14:45:12.670Z,6.70
2023-04-11T14:47:42.946Z,6.47
2023-04-11T14:50:12.359Z,6.67
2023-04-11T14:52:44.342Z,6.67
2023-04-11T14:55:13.726Z,6.30
2023-04-11T14:57:46.740Z,6.43
2023-04-11T15:00:21.613Z,6.90
2023-04-11T15:02:53.330Z,7.43
2023-04-11T15:05:23.747Z,6.47
2023-04-11T15:07:54.124Z,8.30
2023-04-11T15:10:27.022Z,5.40
2023-04-11T15:12:56.114Z,7.90
2023-04-11T15:15:25.790Z,6.33
2023-04-11T15:18:23.576Z,7.97
2023-04-11T15:20:54.234Z,11.50
2023-04-11T15:23:24.553Z,5.60
2023-04-11T15:25:54.762Z,6.50
2023-04-11T15:28:24.909Z,7.30
2023-04-11T15:30:55.069Z,5.80
2023-04-11T15:33:24.424Z,7.83
2023-04-11T15:35:56.395Z,6.60
2023-04-11T15:38:28.283Z,7.70
2023-04-11T15:40:59.283Z,5.20
2023-04-11T15:43:28.524Z,5.57
2023-04-11T15:45:57.461Z,6.03
2023-04-11T15:48:26.331Z,5.53
2023-04-11T15:50:55.797Z,5.67
2023-04-11T15:53:25.085Z,5.73
2023-04-11T15:55:56.745Z,5.57
2023-04-11T15:58:26.840Z,5.23
2023-04-11T16:01:00.578Z,6.07
2023-04-11T16:03:31.765Z,6.00
2023-04-11T16:06:01.514Z,5.53
2023-04-11T16:08:30.652Z,7.23
2023-04-11T16:10:59.554Z,7.73
2023-04-11T16:13:28.641Z,6.60
2023-04-11T16:15:58.604Z,7.23
2023-04-11T16:18:27.771Z,6.93
2023-04-11T16:20:56.750Z,6.93
2023-04-11T16:23:26.331Z,8.57
2023-04-11T16:25:55.728Z,8.23
2023-04-11T16:28:24.661Z,8.10
2023-04-11T16:30:53.604Z,6.53
2023-04-11T16:33:25.678Z,8.60
2023-04-11T16:35:57.464Z,8.90
2023-04-11T16:38:26.886Z,7.50
2023-04-11T16:40:56.167Z,7.10
2023-04-11T16:43:25.257Z,8.83
2023-04-11T16:45:58.938Z,8.73
2023-04-11T16:48:29.842Z,7.22
2023-04-11T16:50:59.934Z,8.67
2023-04-11T16:53:31.443Z,7.30
2023-04-11T16:56:00.797Z,8.67
2023-04-11T16:58:30.778Z,9.20
2023-04-11T17:01:00.873Z,8.90
2023-04-11T17:03:30.357Z,11.77
2023-04-11T17:05:59.833Z,16.23
2023-04-11T17:08:29.130Z,10.70
2023-04-11T17:11:06.346Z,9.30
2023-04-11T17:13:36.405Z,10.40
2023-04-11T17:16:07.439Z,13.37
2023-04-11T17:18:37.184Z,9.97
2023-04-11T17:21:09.404Z,14.37
2023-04-11T17:23:42.334Z,11.40
2023-04-11T17:28:44.405Z,10.73
2023-04-11T17:31:15.915Z,11.47
2023-04-11T17:33:45.953Z,9.87
2023-04-11T17:36:19.234Z,13.33
2023-04-11T17:38:48.779Z,11.25
2023-04-11T17:41:30.969Z,10.13
2023-04-11T17:44:00.934Z,11.50
2023-04-11T17:46:30.486Z,12.97
2023-04-11T17:49:01.806Z,15.07
2023-04-11T17:51:38.742Z,16.00
2023-04-11T17:58:48.814Z,21.97
2023-04-11T18:01:32.439Z,13.70
2023-04-11T18:04:02.472Z,15.20
2023-04-11T18:06:34.523Z,15.70
2023-04-11T18:09:04.808Z,14.40
2023-04-11T18:11:34.027Z,14.30
2023-04-11T18:14:03.638Z,17.40
2023-04-11T18:16:33.246Z,14.97
2023-04-11T18:19:04.177Z,15.13
2023-04-11T18:21:33.720Z,14.00
2023-04-11T18:24:03.870Z,14.83
2023-04-11T18:26:33.069Z,18.00
2023-04-11T18:29:06.715Z,17.57
2023-04-11T18:31:36.311Z,17.77
2023-04-11T18:34:06.887Z,15.13
2023-04-11T18:36:38.997Z,20.03
2023-04-11T18:39:08.699Z,15.17
2023-04-11T18:41:38.103Z,13.53
2023-04-11T18:44:13.179Z,19.10
2023-04-11T18:46:51.416Z,15.20
2023-04-11T18:49:23.754Z,18.17
2023-04-11T18:51:53.317Z,16.13
2023-04-11T18:54:23.150Z,16.67
2023-04-11T18:56:54.246Z,15.20
2023-04-11T18:59:28.771Z,15.93
2023-04-11T19:01:59.453Z,16.80
2023-04-11T19:04:30.307Z,18.87
2023-04-11T19:07:00.848Z,17.47
2023-04-11T19:09:31.136Z,15.87
2023-04-11T19:12:03.102Z,18.60
2023-04-11T19:14:45.633Z,17.30
2023-04-11T19:17:15.073Z,19.20
2023-04-11T19:19:54.925Z,17.55
2023-04-11T19:22:24.519Z,18.00
2023-04-11T19:24:54.064Z,18.83
2023-04-11T19:27:30.256Z,19.60
2023-04-11T19:30:03.226Z,15.33
2023-04-11T19:32:45.706Z,17.17
2023-04-11T19:35:23.913Z,17.73
2023-04-11T19:40:53.208Z,16.57
2023-04-11T19:43:33.144Z,17.03
2023-04-11T19:46:02.768Z,18.70
2023-04-11T19:48:32.612Z,18.10
2023-04-11T19:51:03.006Z,16.07
2023-04-11T19:53:34.426Z,17.70
2023-04-11T19:56:04.890Z,18.53
2023-04-11T19:58:34.916Z,17.43
2023-04-11T20:01:04.629Z,16.97
2023-04-11T20:03:34.063Z,20.77
2023-04-11T20:06:05.242Z,18.03
2023-04-11T20:08:44.230Z,18.63
2023-04-11T20:11:16.079Z,18.77
2023-04-11T20:13:45.726Z,21.87
2023-04-11T20:16:16.523Z,20.23
2023-04-11T20:18:48.297Z,20.00
2023-04-11T20:21:18.504Z,21.53
2023-04-11T20:23:51.112Z,19.80
2023-04-11T20:26:24.475Z,21.83
2023-04-11T20:28:57.610Z,24.53
2023-04-11T20:31:27.442Z,21.63
2023-04-11T20:34:00.470Z,27.83
2023-04-11T20:36:30.568Z,33.53
2023-04-11T20:38:59.552Z,28.10
2023-04-11T20:41:30.032Z,31.80
2023-04-11T20:44:00.274Z,31.70
2023-04-11T20:46:29.525Z,34.20
2023-04-11T20:48:58.938Z,28.73
2023-04-11T20:51:29.788Z,27.17
2023-04-11T20:53:59.350Z,28.97
2023-04-11T20:56:28.461Z,38.03
2023-04-11T20:58:57.992Z,33.37
2023-04-11T21:01:31.960Z,33.73
2023-04-11T21:04:03.024Z,28.23
2023-04-11T21:06:33.043Z,32.80
2023-04-11T21:09:03.933Z,32.47
2023-04-11T21:11:33.123Z,28.30
2023-04-11T21:14:02.700Z,28.97
2023-04-11T21:16:32.426Z,30.17
2023-04-11T21:19:01.868Z,32.70
2023-04-11T21:21:31.224Z,31.10
2023-04-11T21:24:04.370Z,28.60
2023-04-11T21:26:33.748Z,28.60
2023-04-11T21:29:03.489Z,31.10
2023-04-11T21:31:32.608Z,26.87
2023-04-11T21:34:01.829Z,26.80
2023-04-11T21:36:31.132Z,26.20
2023-04-11T21:39:00.094Z,23.85
2023-04-11T21:41:30.288Z,29.17
2023-04-11T21:43:59.525Z,23.37
2023-04-11T21:46:28.696Z,22.97
2023-04-11T21:48:58.974Z,25.43
2023-04-11T21:51:28.534Z,24.30
2023-04-11T21:53:57.792Z,24.00
2023-04-11T21:56:26.863Z,23.90
2023-04-11T21:58:56.230Z,22.63
2023-04-11T22:01:25.260Z,20.80
2023-04-11T22:03:56.310Z,22.83
2023-04-11T22:06:29.960Z,25.57
2023-04-11T22:09:00.833Z,22.07
2023-04-11T22:11:31.065Z,25.60
2023-04-11T22:14:01.598Z,22.43
2023-04-11T22:16:33.190Z,21.37
2023-04-11T22:19:02.364Z,22.33
2023-04-11T22:21:31.997Z,24.80
2023-04-11T22:24:01.769Z,20.97
2023-04-11T22:26:33.674Z,25.03
2023-04-11T22:29:04.578Z,21.63
2023-04-11T22:31:34.726Z,21.70
2023-04-11T22:34:04.004Z,26.90
2023-04-11T22:36:35.456Z,29.37
2023-04-11T22:39:05.810Z,27.67
2023-04-11T22:41:37.884Z,27.80
2023-04-11T22:44:07.238Z,30.20
2023-04-11T22:46:38.126Z,31.20
2023-04-11T22:49:09.252Z,29.73
2023-04-11T22:51:40.174Z,25.85
2023-04-11T22:54:09.633Z,28.43
2023-04-11T22:56:38.489Z,27.13
2023-04-11T22:59:07.893Z,27.47
2023-04-11T23:01:36.805Z,28.70
2023-04-11T23:04:06.468Z,29.67
2023-04-11T23:06:35.349Z,30.27
2023-04-11T23:09:06.955Z,25.93
2023-04-11T23:11:35.807Z,27.40
2023-04-11T23:14:04.839Z,27.80
2023-04-11T23:16:33.897Z,27.10
2023-04-11T23:19:03.728Z,28.80
2023-04-11T23:21:33.098Z,27.37
2023-04-11T23:24:02.204Z,28.33
2023-04-11T23:26:31.200Z,26.50
2023-04-11T23:29:02.132Z,26.13
2023-04-11T23:31:32.036Z,23.53
2023-04-11T23:34:01.281Z,26.90
2023-04-11T23:36:30.584Z,25.60
2023-04-11T23:39:02.664Z,28.33
2023-04-11T23:41:31.832Z,27.57
2023-04-11T23:44:00.778Z,23.53
2023-04-11T23:46:29.943Z,24.67
2023-04-11T23:48:58.991Z,23.67
2023-04-11T23:51:27.784Z,21.67
2023-04-11T23:53:59.421Z,23.10
2023-04-11T23:56:28.928Z,21.73
2023-04-11T23:58:58.333Z,19.73
